createdAt,value
2023-05-14T00:01:01.483Z,101485.12
2023-05-14T00:03:29.486Z,101478.25
2023-05-14T00:05:57.451Z,101473.34
2023-05-14T00:08:25.397Z,101471.74
2023-05-14T00:10:53.675Z,101468.08
2023-05-14T00:13:21.630Z,101477.49
2023-05-14T00:15:49.491Z,101469.19
2023-05-14T00:18:17.437Z,101464.74
2023-05-14T00:20:45.593Z,101465.04
2023-05-14T00:23:13.643Z,101469.81
2023-05-14T00:25:41.545Z,101467.09
2023-05-14T00:28:09.374Z,101468.21
2023-05-14T00:30:37.292Z,101469.78
2023-05-14T00:33:05.389Z,101469.78
2023-05-14T00:35:33.722Z,101466.15
2023-05-14T00:38:01.566Z,101457.38
2023-05-14T00:40:29.812Z,101450.65
2023-05-14T00:42:58.069Z,101456.70
2023-05-14T00:45:26.044Z,101460.00
2023-05-14T00:47:55.334Z,101458.56
2023-05-14T00:50:24.605Z,101454.73
2023-05-14T00:52:52.642Z,101456.34
2023-05-14T00:55:21.080Z,101448.82
2023-05-14T00:57:49.016Z,101446.76
2023-05-14T01:00:17.403Z,101456.47
2023-05-14T01:02:45.362Z,101451.50
2023-05-14T01:05:13.334Z,101448.66
2023-05-14T01:07:47.187Z,101451.04
2023-05-14T01:10:50.127Z,101441.13
2023-05-14T01:13:42.831Z,101446.70
2023-05-14T01:16:15.065Z,101430.27
2023-05-14T01:18:45.360Z,101434.73
2023-05-14T01:21:37.662Z,101440.48
2023-05-14T01:24:06.250Z,101443.32
2023-05-14T01:26:34.551Z,101439.99
2023-05-14T01:29:10.788Z,101437.44
2023-05-14T01:31:41.213Z,101442.87
2023-05-14T01:34:10.763Z,101443.16
2023-05-14T01:36:39.073Z,101438.23
2023-05-14T01:39:10.804Z,101445.25
2023-05-14T01:41:40.693Z,101447.61
2023-05-14T01:44:10.656Z,101450.48
2023-05-14T01:46:38.658Z,101444.27
2023-05-14T01:49:06.610Z,101441.69
2023-05-14T01:51:34.643Z,101438.35
2023-05-14T01:54:02.647Z,101443.29
2023-05-14T01:56:30.625Z,101439.63
2023-05-14T01:58:58.613Z,101437.57
2023-05-14T02:01:27.484Z,101436.26
2023-05-14T02:03:55.568Z,101433.91
2023-05-14T02:06:23.435Z,101432.63
2023-05-14T02:08:51.267Z,101433.09
2023-05-14T02:11:19.264Z,101426.26
2023-05-14T02:13:47.179Z,101429.46
2023-05-14T02:16:15.138Z,101421.32
2023-05-14T02:18:43.075Z,101428.34
2023-05-14T02:21:11.033Z,101420.50
2023-05-14T02:23:41.933Z,101411.90
2023-05-14T02:26:11.481Z,101421.32
2023-05-14T02:28:39.538Z,101412.42
2023-05-14T02:31:07.547Z,101424.06
2023-05-14T02:33:35.657Z,101412.59
2023-05-14T02:36:03.642Z,101415.92
2023-05-14T02:38:31.550Z,101412.75
2023-05-14T02:40:59.420Z,101418.51
2023-05-14T02:43:27.346Z,101417.72
2023-05-14T02:45:55.206Z,101418.21
2023-05-14T02:48:23.089Z,101419.20
2023-05-14T02:50:53.349Z,101412.16
2023-05-14T02:53:21.317Z,101407.71
2023-05-14T02:55:49.226Z,101411.34
2023-05-14T02:58:17.252Z,101400.84
2023-05-14T03:00:45.264Z,101407.06
2023-05-14T03:03:13.981Z,101408.34
2023-05-14T03:05:42.256Z,101397.87
2023-05-14T03:08:10.193Z,101394.70
2023-05-14T03:10:38.389Z,101398.85
2023-05-14T03:13:06.261Z,101396.92
2023-05-14T03:15:34.125Z,101391.98
2023-05-14T03:18:02.270Z,101392.18
2023-05-14T03:20:30.276Z,101386.59
2023-05-14T03:22:58.127Z,101380.57
2023-05-14T03:25:26.070Z,101396.66
2023-05-14T03:27:54.049Z,101392.21
2023-05-14T03:30:22.340Z,101386.66
2023-05-14T03:32:50.591Z,101383.48
2023-05-14T03:35:18.626Z,101387.63
2023-05-14T03:37:46.500Z,101393.52
2023-05-14T03:40:14.497Z,101391.92
2023-05-14T03:42:42.293Z,101390.35
2023-05-14T03:45:10.913Z,101386.36
2023-05-14T03:47:38.869Z,101391.33
2023-05-14T03:50:07.615Z,101394.21
2023-05-14T03:52:35.597Z,101396.07
2023-05-14T03:55:03.652Z,101388.26
2023-05-14T03:57:31.594Z,101392.41
2023-05-14T03:59:59.508Z,101387.47
2023-05-14T04:02:27.524Z,101391.92
2023-05-14T04:04:55.541Z,101395.12
2023-05-14T04:07:23.594Z,101394.63
2023-05-14T04:09:51.511Z,101398.10
2023-05-14T04:12:19.428Z,101388.23
2023-05-14T04:14:47.388Z,101403.98
2023-05-14T04:17:15.207Z,101389.63
2023-05-14T04:19:43.073Z,101388.06
2023-05-14T04:22:11.003Z,101384.20
2023-05-14T04:24:38.973Z,101385.02
2023-05-14T04:27:08.225Z,101386.30
2023-05-14T04:29:36.082Z,101385.84
2023-05-14T04:32:04.072Z,101391.85
2023-05-14T04:34:32.153Z,101391.07
2023-05-14T04:36:59.977Z,101384.20
2023-05-14T04:39:27.800Z,101395.38
2023-05-14T04:41:55.646Z,101392.21
2023-05-14T04:44:23.562Z,101386.95
2023-05-14T04:46:51.457Z,101385.70
2023-05-14T04:49:19.378Z,101390.61
2023-05-14T04:51:47.358Z,101389.83
2023-05-14T04:54:15.388Z,101394.14
2023-05-14T04:56:43.283Z,101393.52
2023-05-14T04:59:11.105Z,101393.98
2023-05-14T05:01:39.087Z,101397.67
2023-05-14T05:04:06.969Z,101398.66
2023-05-14T05:06:34.839Z,101397.05
2023-05-14T05:09:03.206Z,101396.23
2023-05-14T05:11:31.078Z,101404.84
2023-05-14T05:13:58.920Z,101397.55
2023-05-14T05:16:26.909Z,101391.79
2023-05-14T05:18:54.986Z,101395.95
2023-05-14T05:21:22.966Z,101394.21
2023-05-14T05:23:50.916Z,101398.66
2023-05-14T05:26:18.874Z,101392.61
2023-05-14T05:28:46.752Z,101402.45
2023-05-14T05:31:15.193Z,101402.97
2023-05-14T05:33:44.030Z,101406.30
2023-05-14T05:36:11.920Z,101406.30
2023-05-14T05:38:39.819Z,101400.88
2023-05-14T05:41:07.815Z,101402.65
2023-05-14T05:43:35.796Z,101410.27
2023-05-14T05:46:03.730Z,101402.29
2023-05-14T05:48:31.688Z,101409.12
2023-05-14T05:50:59.737Z,101403.70
2023-05-14T05:53:27.632Z,101390.02
2023-05-14T05:55:55.659Z,101392.67
2023-05-14T05:58:23.472Z,101393.78
2023-05-14T06:00:51.342Z,101395.38
2023-05-14T06:03:19.313Z,101401.41
2023-05-14T06:05:48.077Z,101399.96
2023-05-14T06:08:15.972Z,101395.02
2023-05-14T06:10:45.206Z,101398.49
2023-05-14T06:13:14.221Z,101398.03
2023-05-14T06:15:42.025Z,101401.04
2023-05-14T06:18:09.999Z,101397.67
2023-05-14T06:20:37.919Z,101389.37
2023-05-14T06:23:05.845Z,101397.67
2023-05-14T06:25:33.730Z,101392.73
2023-05-14T06:28:01.616Z,101391.95
2023-05-14T06:30:29.455Z,101393.52
2023-05-14T06:32:57.332Z,101393.52
2023-05-14T06:35:25.419Z,101396.40
2023-05-14T06:37:53.219Z,101390.97
2023-05-14T06:40:21.385Z,101398.30
2023-05-14T06:42:49.301Z,101389.99
2023-05-14T06:45:17.217Z,101394.96
2023-05-14T06:47:45.109Z,101394.77
2023-05-14T06:50:13.018Z,101395.06
2023-05-14T06:52:40.954Z,101398.23
2023-05-14T06:55:09.162Z,101393.62
2023-05-14T06:57:39.178Z,101395.38
2023-05-14T07:00:09.224Z,101398.72
2023-05-14T07:02:37.136Z,101403.37
2023-05-14T07:05:05.129Z,101401.77
2023-05-14T07:07:33.115Z,101396.04
2023-05-14T07:10:01.193Z,101394.77
2023-05-14T07:12:29.133Z,101388.52
2023-05-14T07:14:58.325Z,101406.05
2023-05-14T07:17:26.279Z,101392.02
2023-05-14T07:19:54.206Z,101396.50
2023-05-14T07:22:22.279Z,101400.95
2023-05-14T07:24:50.974Z,101399.96
2023-05-14T07:27:18.884Z,101398.20
2023-05-14T07:29:46.784Z,101400.39
2023-05-14T07:32:15.741Z,101400.39
2023-05-14T07:34:44.260Z,101398.91
2023-05-14T07:37:12.272Z,101396.34
2023-05-14T07:39:40.403Z,101400.62
2023-05-14T07:42:08.397Z,101391.52
2023-05-14T07:44:36.265Z,101388.78
2023-05-14T07:47:05.495Z,101385.74
2023-05-14T07:49:33.370Z,101388.45
2023-05-14T07:52:01.365Z,101379.95
2023-05-14T07:54:29.301Z,101386.10
2023-05-14T07:56:57.108Z,101381.59
2023-05-14T07:59:24.999Z,101376.02
2023-05-14T08:01:52.982Z,101380.90
2023-05-14T08:04:21.004Z,101380.05
2023-05-14T08:06:48.930Z,101376.45
2023-05-14T08:09:17.259Z,101370.83
2023-05-14T08:11:45.224Z,101371.09
2023-05-14T08:14:13.187Z,101373.48
2023-05-14T08:16:41.171Z,101370.89
2023-05-14T08:19:09.043Z,101374.88
2023-05-14T08:21:37.136Z,101369.72
2023-05-14T08:24:05.155Z,101365.34
2023-05-14T08:26:33.140Z,101370.08
2023-05-14T08:29:01.074Z,101363.86
2023-05-14T08:31:29.513Z,101366.05
2023-05-14T08:33:57.563Z,101367.62
2023-05-14T08:36:25.480Z,101369.98
2023-05-14T08:38:53.381Z,101369.00
2023-05-14T08:41:22.580Z,101375.83
2023-05-14T08:44:34.392Z,101371.45
2023-05-14T08:47:02.769Z,101373.05
2023-05-14T08:49:44.372Z,101371.05
2023-05-14T08:52:12.677Z,101366.67
2023-05-14T08:54:41.476Z,101365.95
2023-05-14T08:57:12.930Z,101372.30
2023-05-14T08:59:40.816Z,101362.98
2023-05-14T09:02:14.264Z,101363.57
2023-05-14T09:04:42.666Z,101356.02
2023-05-14T09:07:10.848Z,101361.84
2023-05-14T09:09:39.605Z,101355.39
2023-05-14T09:12:07.884Z,101357.78
2023-05-14T09:14:36.088Z,101355.20
2023-05-14T09:17:04.844Z,101354.67
2023-05-14T09:19:32.845Z,101354.97
2023-05-14T09:22:00.830Z,101359.94
2023-05-14T09:24:32.906Z,101354.45
2023-05-14T09:27:00.832Z,101349.51
2023-05-14T09:29:32.428Z,101357.62
2023-05-14T09:32:02.046Z,101356.84
2023-05-14T09:34:31.910Z,101350.26
2023-05-14T09:37:02.555Z,101344.83
2023-05-14T09:39:31.231Z,101345.62
2023-05-14T09:41:59.512Z,101349.05
2023-05-14T09:44:29.301Z,101345.87
2023-05-14T09:46:57.786Z,101347.48
2023-05-14T09:49:25.773Z,101343.00
2023-05-14T09:51:53.649Z,101338.55
2023-05-14T09:54:21.536Z,101333.32
2023-05-14T09:56:49.471Z,101334.89
2023-05-14T09:59:17.497Z,101334.76
2023-05-14T10:01:45.813Z,101326.95
2023-05-14T10:04:14.678Z,101330.51
2023-05-14T10:06:46.843Z,101321.98
2023-05-14T10:09:16.766Z,101317.10
2023-05-14T10:11:46.594Z,101311.67
2023-05-14T10:14:40.132Z,101308.93
2023-05-14T10:17:09.472Z,101311.34
2023-05-14T10:19:38.652Z,101310.10
2023-05-14T10:22:12.751Z,101306.96
2023-05-14T10:24:41.192Z,101307.55
2023-05-14T10:27:09.305Z,101307.69
2023-05-14T10:29:38.879Z,101311.64
2023-05-14T10:32:09.000Z,101302.02
2023-05-14T10:34:47.613Z,101300.00
2023-05-14T10:37:22.535Z,101304.58
2023-05-14T10:40:07.694Z,101296.47
2023-05-14T10:42:44.753Z,101289.99
2023-05-14T10:45:17.174Z,101295.29
2023-05-14T10:47:50.027Z,101292.41
2023-05-14T10:50:18.885Z,101291.14
2023-05-14T10:52:47.489Z,101290.91
2023-05-14T10:55:17.353Z,101284.89
2023-05-14T10:57:47.519Z,101278.05
2023-05-14T11:00:17.268Z,101282.34
2023-05-14T11:02:46.169Z,101284.20
2023-05-14T11:05:18.587Z,101277.93
2023-05-14T11:07:49.374Z,101277.93
2023-05-14T11:10:21.743Z,101275.34
2023-05-14T11:12:52.278Z,101274.79
2023-05-14T11:15:23.159Z,101271.91
2023-05-14T11:17:52.331Z,101271.13
2023-05-14T11:20:21.833Z,101265.34
2023-05-14T11:22:52.904Z,101262.98
2023-05-14T11:25:21.154Z,101259.55
2023-05-14T11:27:49.491Z,101265.34
2023-05-14T11:30:21.382Z,101262.46
2023-05-14T11:32:50.969Z,101252.98
2023-05-14T11:35:19.755Z,101259.02
2023-05-14T11:37:54.004Z,101253.80
2023-05-14T11:42:52.657Z,101249.34
2023-05-14T11:45:28.534Z,101244.34
2023-05-14T11:47:56.483Z,101243.30
2023-05-14T11:50:24.968Z,101247.22
2023-05-14T11:52:58.221Z,101251.96
2023-05-14T11:55:26.244Z,101236.73
2023-05-14T11:57:54.261Z,101238.03
2023-05-14T12:00:24.421Z,101235.38
2023-05-14T12:02:53.134Z,101233.55
2023-05-14T12:05:21.323Z,101227.77
2023-05-14T12:07:49.279Z,101230.64
2023-05-14T12:10:17.222Z,101225.67
2023-05-14T12:12:48.688Z,101235.35
2023-05-14T12:15:18.293Z,101230.12
2023-05-14T12:17:53.100Z,101225.41
2023-05-14T12:20:21.590Z,101221.72
2023-05-14T12:22:49.889Z,101220.37
2023-05-14T12:25:18.105Z,101221.45
2023-05-14T12:27:46.312Z,101216.98
2023-05-14T12:32:46.378Z,101226.39
2023-05-14T12:35:14.335Z,101215.63
2023-05-14T12:37:43.302Z,101215.90
2023-05-14T12:40:11.672Z,101206.45
2023-05-14T12:42:39.701Z,101202.52
2023-05-14T12:45:09.701Z,101199.09
2023-05-14T12:47:38.241Z,101197.78
2023-05-14T12:50:07.190Z,101202.26
2023-05-14T12:52:39.722Z,101203.01
2023-05-14T12:55:11.403Z,101203.83
2023-05-14T12:57:40.193Z,101195.66
2023-05-14T13:00:10.841Z,101196.96
2023-05-14T13:02:43.072Z,101195.88
2023-05-14T13:05:15.030Z,101201.18
2023-05-14T13:07:43.007Z,101202.48
2023-05-14T13:10:11.711Z,101194.09
2023-05-14T13:12:40.175Z,101191.70
2023-05-14T13:15:08.657Z,101195.39
2023-05-14T13:17:37.643Z,101189.60
2023-05-14T13:20:06.147Z,101178.81
2023-05-14T13:22:34.011Z,101181.43
2023-05-14T13:25:02.060Z,101174.59
2023-05-14T13:27:29.933Z,101183.26
2023-05-14T13:29:58.244Z,101169.82
2023-05-14T13:32:27.215Z,101186.37
2023-05-14T13:34:55.179Z,101179.01
2023-05-14T13:37:23.160Z,101177.18
2023-05-14T13:39:51.602Z,101184.24
2023-05-14T13:42:19.635Z,101186.89
2023-05-14T13:44:47.578Z,101193.23
2023-05-14T13:47:15.546Z,101190.39
2023-05-14T13:49:44.240Z,101174.34
2023-05-14T13:52:13.854Z,101174.34
2023-05-14T13:54:42.241Z,101172.50
2023-05-14T13:57:10.234Z,101171.75
2023-05-14T13:59:38.283Z,101164.88
2023-05-14T14:02:06.706Z,101161.97
2023-05-14T14:04:35.179Z,101164.85
2023-05-14T14:07:03.187Z,101160.37
2023-05-14T14:09:36.240Z,101157.91
2023-05-14T14:12:07.814Z,101151.57
2023-05-14T14:14:35.693Z,101155.53
2023-05-14T14:17:03.630Z,101151.09
2023-05-14T14:19:31.542Z,101146.11
2023-05-14T14:21:59.468Z,101148.76
2023-05-14T14:24:27.606Z,101150.33
2023-05-14T14:26:55.527Z,101147.16
2023-05-14T14:29:25.116Z,101143.70
2023-05-14T14:31:53.174Z,101146.90
2023-05-14T14:34:22.358Z,101143.50
2023-05-14T14:36:50.305Z,101137.45
2023-05-14T14:39:18.277Z,101138.49
2023-05-14T14:41:46.371Z,101139.80
2023-05-14T14:44:14.497Z,101131.63
2023-05-14T14:46:44.130Z,101137.91
2023-05-14T14:49:12.118Z,101135.59
2023-05-14T14:51:40.041Z,101129.80
2023-05-14T14:54:08.034Z,101128.75
2023-05-14T14:56:35.949Z,101125.35
2023-05-14T14:59:04.629Z,101128.78
2023-05-14T15:01:33.013Z,101125.12
2023-05-14T15:04:01.043Z,101122.50
2023-05-14T15:06:29.251Z,101116.75
2023-05-14T15:08:57.190Z,101111.26
2023-05-14T15:11:25.208Z,101108.34
2023-05-14T15:13:53.057Z,101108.37
2023-05-14T15:16:21.010Z,101109.16
2023-05-14T15:18:49.242Z,101111.02
2023-05-14T15:21:17.126Z,101126.30
2023-05-14T15:23:45.053Z,101123.16
2023-05-14T15:26:12.966Z,101125.25
2023-05-14T15:28:40.838Z,101126.07
2023-05-14T15:31:08.998Z,101130.52
2023-05-14T15:33:37.520Z,101126.82
2023-05-14T15:36:06.894Z,101130.25
2023-05-14T15:38:35.082Z,101128.95
2023-05-14T15:41:03.464Z,101134.99
2023-05-14T15:43:31.798Z,101137.61
2023-05-14T15:45:59.818Z,101132.87
2023-05-14T15:48:27.807Z,101133.42
2023-05-14T15:50:55.755Z,101136.07
2023-05-14T15:53:23.884Z,101130.55
2023-05-14T15:55:51.957Z,101133.42
2023-05-14T15:58:19.873Z,101138.16
2023-05-14T16:00:47.838Z,101138.16
2023-05-14T16:03:15.769Z,101135.29
2023-05-14T16:05:44.100Z,101140.81
2023-05-14T16:08:12.419Z,101141.60
2023-05-14T16:10:40.368Z,101147.95
2023-05-14T16:13:08.419Z,101168.19
2023-05-14T16:15:36.487Z,101193.37
2023-05-14T16:18:04.591Z,101197.02
2023-05-14T16:20:32.553Z,101205.10
2023-05-14T16:23:00.480Z,101207.23
2023-05-14T16:25:28.423Z,101207.00
2023-05-14T16:27:56.399Z,101208.87
2023-05-14T16:30:24.465Z,101218.38
2023-05-14T16:32:52.663Z,101226.75
2023-05-14T16:35:20.550Z,101231.55
2023-05-14T16:37:48.441Z,101250.03
2023-05-14T16:40:17.435Z,101253.14
2023-05-14T16:42:47.788Z,101258.66
2023-05-14T16:45:17.193Z,101260.37
2023-05-14T16:47:45.409Z,101267.17
2023-05-14T16:50:13.363Z,101263.60
2023-05-14T16:52:41.301Z,101274.66
2023-05-14T16:55:09.826Z,101272.37
2023-05-14T16:57:37.694Z,101253.14
2023-05-14T17:00:07.533Z,101252.95
2023-05-14T17:02:35.578Z,101255.69
2023-05-14T17:05:03.545Z,101253.66
2023-05-14T17:07:32.761Z,101253.83
2023-05-14T17:10:03.421Z,101249.91
2023-05-14T17:12:31.346Z,101247.68
2023-05-14T17:14:59.270Z,101247.38
2023-05-14T17:17:27.214Z,101253.60
2023-05-14T17:19:55.103Z,101251.73
2023-05-14T17:22:22.986Z,101251.24
2023-05-14T17:24:50.974Z,101250.13
2023-05-14T17:27:18.851Z,101252.20
2023-05-14T17:29:46.935Z,101252.72
2023-05-14T17:32:14.934Z,101258.30
2023-05-14T17:34:42.858Z,101258.38
2023-05-14T17:37:10.901Z,101256.48
2023-05-14T17:39:38.807Z,101252.39
2023-05-14T17:42:07.653Z,101257.16
2023-05-14T17:44:35.587Z,101265.96
2023-05-14T17:47:04.482Z,101270.27
2023-05-14T17:49:33.337Z,101269.66
2023-05-14T17:52:01.290Z,101265.50
2023-05-14T17:54:29.316Z,101262.52
2023-05-14T17:56:57.419Z,101267.76
2023-05-14T17:59:25.430Z,101272.70
2023-05-14T18:01:53.381Z,101266.19
2023-05-14T18:04:21.445Z,101270.34
2023-05-14T18:06:49.362Z,101265.37
2023-05-14T18:09:17.326Z,101264.91
2023-05-14T18:11:45.524Z,101266.97
2023-05-14T18:14:13.539Z,101265.70
2023-05-14T18:16:41.678Z,101262.82
2023-05-14T18:19:09.684Z,101266.32
2023-05-14T18:21:37.595Z,101261.67
2023-05-14T18:24:05.806Z,101257.85
2023-05-14T18:26:34.463Z,101269.62
2023-05-14T18:29:02.495Z,101262.43
2023-05-14T18:31:32.079Z,101263.21
2023-05-14T18:34:00.189Z,101266.88
2023-05-14T18:36:28.218Z,101264.81
2023-05-14T18:38:56.196Z,101267.70
2023-05-14T18:41:24.861Z,101267.98
2023-05-14T18:43:52.871Z,101260.70
2023-05-14T18:46:20.958Z,101265.89
2023-05-14T18:48:48.974Z,101266.22
2023-05-14T18:51:17.051Z,101267.82
2023-05-14T18:53:44.888Z,101268.90
2023-05-14T18:56:12.822Z,101277.01
2023-05-14T18:58:40.762Z,101275.28
2023-05-14T19:01:08.912Z,101274.76
2023-05-14T19:03:37.163Z,101280.48
2023-05-14T19:06:05.314Z,101282.90
2023-05-14T19:08:33.280Z,101292.28
2023-05-14T19:11:01.214Z,101295.95
2023-05-14T19:13:29.962Z,101308.50
2023-05-14T19:15:58.003Z,101315.01
2023-05-14T19:18:26.016Z,101322.04
2023-05-14T19:20:53.984Z,101319.16
2023-05-14T19:23:21.950Z,101320.73
2023-05-14T19:25:49.993Z,101324.88
2023-05-14T19:28:17.983Z,101320.44
2023-05-14T19:30:45.859Z,101319.33
2023-05-14T19:33:13.825Z,101309.16
2023-05-14T19:35:41.816Z,101314.42
2023-05-14T19:38:11.504Z,101313.80
2023-05-14T19:40:39.418Z,101312.82
2023-05-14T19:43:09.195Z,101307.88
2023-05-14T19:45:40.624Z,101313.30
2023-05-14T19:48:08.504Z,101307.88
2023-05-14T19:50:39.241Z,101306.28
2023-05-14T19:53:07.128Z,101305.00
2023-05-14T19:55:34.988Z,101310.73
2023-05-14T19:58:02.880Z,101302.95
2023-05-14T20:00:30.858Z,101301.18
2023-05-14T20:03:00.778Z,101295.62
2023-05-14T20:05:28.899Z,101288.33
2023-05-14T20:07:57.075Z,101295.62
2023-05-14T20:10:25.370Z,101289.08
2023-05-14T20:12:54.912Z,101284.63
2023-05-14T20:15:22.881Z,101289.08
2023-05-14T20:17:50.857Z,101282.27
2023-05-14T20:20:18.878Z,101292.45
2023-05-14T20:22:46.817Z,101285.16
2023-05-14T20:25:15.015Z,101288.33
2023-05-14T20:27:43.034Z,101282.27
2023-05-14T20:30:11.273Z,101281.00
2023-05-14T20:32:39.193Z,101281.00
2023-05-14T20:35:07.725Z,101287.21
2023-05-14T20:37:35.649Z,101283.35
2023-05-14T20:40:03.856Z,101277.14
2023-05-14T20:42:32.001Z,101278.41
2023-05-14T20:44:59.844Z,101278.41
2023-05-14T20:47:30.245Z,101277.96
2023-05-14T20:49:58.246Z,101275.87
2023-05-14T20:52:26.172Z,101284.47
2023-05-14T20:54:54.114Z,101275.87
2023-05-14T20:57:22.074Z,101275.87
2023-05-14T20:59:50.471Z,101288.13
2023-05-14T21:02:18.712Z,101281.88
2023-05-14T21:04:47.301Z,101289.73
2023-05-14T21:07:15.308Z,101281.13
2023-05-14T21:09:43.336Z,101283.20
2023-05-14T21:12:11.444Z,101282.41
2023-05-14T21:14:39.295Z,101280.02
2023-05-14T21:17:07.234Z,101281.13
2023-05-14T21:19:35.183Z,101291.79
2023-05-14T21:22:03.128Z,101294.18
2023-05-14T21:24:31.023Z,101301.18
2023-05-14T21:26:59.049Z,101302.78
2023-05-14T21:29:26.956Z,101299.41
2023-05-14T21:31:54.793Z,101297.80
2023-05-14T21:34:22.704Z,101293.66
2023-05-14T21:36:50.681Z,101282.21
2023-05-14T21:39:18.609Z,101292.09
2023-05-14T21:41:46.558Z,101279.82
2023-05-14T21:44:14.452Z,101288.75
2023-05-14T21:46:42.454Z,101293.36
2023-05-14T21:49:10.465Z,101281.13
2023-05-14T21:51:38.357Z,101283.48
2023-05-14T21:54:06.449Z,101287.93
2023-05-14T21:56:36.165Z,101283.48
2023-05-14T21:59:04.146Z,101279.82
2023-05-14T22:01:33.798Z,101278.25
2023-05-14T22:04:06.759Z,101277.96
2023-05-14T22:06:34.971Z,101270.60
2023-05-14T22:09:02.854Z,101275.87
2023-05-14T22:11:30.987Z,101281.59
2023-05-14T22:13:58.849Z,101272.53
2023-05-14T22:16:28.114Z,101280.48
2023-05-14T22:18:56.026Z,101275.28
2023-05-14T22:21:23.893Z,101281.95
2023-05-14T22:23:51.790Z,101279.40
2023-05-14T22:26:19.635Z,101289.27
2023-05-14T22:28:47.614Z,101286.43
2023-05-14T22:31:15.710Z,101290.06
2023-05-14T22:33:43.699Z,101289.08
2023-05-14T22:36:11.885Z,101288.33
2023-05-14T22:38:42.454Z,101287.80
2023-05-14T22:41:11.812Z,101288.62
2023-05-14T22:43:39.687Z,101280.80
2023-05-14T22:46:08.058Z,101271.13
2023-05-14T22:48:35.902Z,101280.31
2023-05-14T22:51:03.791Z,101280.61
2023-05-14T22:53:31.676Z,101276.45
2023-05-14T22:55:59.991Z,101269.78
2023-05-14T22:58:27.956Z,101268.51
2023-05-14T23:00:55.867Z,101263.24
2023-05-14T23:03:23.740Z,101265.63
2023-05-14T23:05:51.688Z,101264.36
2023-05-14T23:08:19.622Z,101268.80
2023-05-14T23:10:47.655Z,101262.30
2023-05-14T23:13:15.569Z,101266.91
2023-05-14T23:15:44.270Z,101262.95
2023-05-14T23:18:12.330Z,101264.23
2023-05-14T23:20:40.334Z,101253.23
2023-05-14T23:23:08.305Z,101254.80
2023-05-14T23:25:36.309Z,101259.78
2023-05-14T23:28:04.355Z,101253.73
2023-05-14T23:30:32.231Z,101253.92
2023-05-14T23:33:00.214Z,101250.06
2023-05-14T23:35:28.300Z,101251.63
2023-05-14T23:37:56.587Z,101238.13
2023-05-14T23:40:24.559Z,101247.52
2023-05-14T23:42:52.568Z,101243.85
2023-05-14T23:45:20.474Z,101238.91
2023-05-14T23:47:48.548Z,101237.31
2023-05-14T23:50:16.549Z,101239.90
2023-05-14T23:52:44.484Z,101232.87
2023-05-14T23:55:12.412Z,101229.23
2023-05-14T23:57:40.789Z,101228.71
